Time;durP1;ratioP1;P1;durP2;ratioP2;P2;SDS_P1;SDS_P2;PMS_P1;PMS_P2;Temp;Humidity;BMP_temperature;BMP_pressure;BME280_temperature;BME280_humidity;BME280_pressure;Samples;Min_cycle;Max_cycle;Signal;HPM_P1;HPM_P2
2022/01/23 00:01:36;;;;;;;0.20;0.20;;;5.40;99.90;;;;;;5113586;27;20039;-84
2022/01/23 00:04:02;;;;;;;0.40;0.40;;;5.40;99.90;;;;;;5114574;27;20046;-84
2022/01/23 00:06:28;;;;;;;0.43;0.43;;;5.40;99.90;;;;;;5097112;27;20031;-84
2022/01/23 00:08:53;;;;;;;0.30;0.30;;;5.40;99.90;;;;;;5114688;27;20518;-84
2022/01/23 00:11:24;;;;;;;0.30;0.30;;;5.40;99.90;;;;;;5114749;27;20023;-85
2022/01/23 00:19:06;;;;;;;0.38;0.38;;;5.40;99.90;;;;;;5114526;27;20055;-84
2022/01/23 00:21:34;;;;;;;0.65;0.65;;;5.40;99.90;;;;;;5097957;27;20027;-84
2022/01/23 00:32:08;;;;;;;0.20;0.20;;;5.40;99.90;;;;;;5100879;27;20122;-85
2022/01/23 00:34:42;;;;;;;1.10;0.60;;;5.40;99.90;;;;;;5120792;27;20072;-84
2022/01/23 00:37:08;;;;;;;0.43;0.43;;;5.40;99.90;;;;;;5118019;27;20047;-85
2022/01/23 00:39:36;;;;;;;0.30;0.30;;;5.40;99.90;;;;;;5097139;27;20466;-84
2022/01/23 00:42:01;;;;;;;0.28;0.28;;;5.40;99.90;;;;;;5090382;28;20122;-84
2022/01/23 00:44:44;;;;;;;0.20;0.20;;;5.30;99.90;;;;;;5088380;28;20082;-84
2022/01/23 00:47:12;;;;;;;0.30;0.30;;;5.40;99.90;;;;;;5092448;28;20038;-84
2022/01/23 00:49:41;;;;;;;0.25;0.25;;;5.40;99.90;;;;;;5111502;27;20035;-84
2022/01/23 00:52:06;;;;;;;1.40;1.00;;;5.40;99.90;;;;;;5111062;27;20134;-84
2022/01/23 00:54:38;;;;;;;0.40;0.40;;;5.40;99.90;;;;;;5106178;28;20122;-84
2022/01/23 00:57:06;;;;;;;0.20;0.20;;;5.40;99.90;;;;;;5094323;28;20032;-83
2022/01/23 00:59:34;;;;;;;0.68;0.60;;;5.40;99.90;;;;;;5089477;27;20048;-84
2022/01/23 01:02:18;;;;;;;0.30;0.30;;;5.30;99.90;;;;;;5097095;28;20480;-85
2022/01/23 01:04:44;;;;;;;1.17;0.60;;;5.40;99.90;;;;;;5097043;28;20126;-84
2022/01/23 01:07:09;;;;;;;0.47;0.47;;;5.40;99.90;;;;;;5096332;28;20448;-84
2022/01/23 01:09:35;;;;;;;0.30;0.30;;;5.40;99.90;;;;;;5113738;28;20081;-84
2022/01/23 01:12:05;;;;;;;0.90;0.63;;;5.40;99.90;;;;;;5113446;28;20419;-83
2022/01/23 01:14:56;;;;;;;2.58;1.85;;;5.40;99.90;;;;;;5112964;28;20035;-84
2022/01/23 01:31:06;;;;;;;0.50;0.50;;;5.40;99.90;;;;;;5114068;28;20103;-84
2022/01/23 01:33:41;;;;;;;0.40;0.40;;;5.40;99.90;;;;;;5096974;28;20301;-84
2022/01/23 01:36:35;;;;;;;0.57;0.57;;;5.30;99.90;;;;;;5113548;28;20082;-84
2022/01/23 01:39:01;;;;;;;0.43;0.43;;;5.30;99.90;;;;;;5083554;28;20038;-84
2022/01/23 01:41:27;;;;;;;0.90;0.40;;;5.30;99.90;;;;;;5096507;28;20031;-84
2022/01/23 01:43:54;;;;;;;0.20;0.20;;;5.30;99.90;;;;;;5113384;28;20035;-84
2022/01/23 01:46:20;;;;;;;0.50;0.47;;;5.40;99.90;;;;;;5095653;28;20043;-84
2022/01/23 01:48:45;;;;;;;0.30;0.30;;;5.40;99.90;;;;;;5099843;27;20617;-84
2022/01/23 01:51:15;;;;;;;0.52;0.50;;;5.30;99.90;;;;;;5099807;27;20039;-84
2022/01/23 01:53:48;;;;;;;0.30;0.30;;;5.30;99.90;;;;;;5099947;27;20067;-84
2022/01/23 01:56:14;;;;;;;0.30;0.30;;;5.30;99.90;;;;;;5116672;27;20040;-84
2022/01/23 02:09:22;;;;;;;0.20;0.20;;;5.30;99.90;;;;;;5117632;27;20038;-85
2022/01/23 02:12:14;;;;;;;0.82;0.70;;;5.30;99.90;;;;;;5100580;27;20125;-84
2022/01/23 02:15:39;;;;;;;0.60;0.55;;;5.30;99.90;;;;;;5114802;27;20070;-84
2022/01/23 02:55:38;;;;;;;0.52;0.52;;;5.20;99.90;;;;;;5116245;27;20085;-84
2022/01/23 02:58:06;;;;;;;0.38;0.38;;;5.20;99.90;;;;;;5097515;27;20042;-84
2022/01/23 03:00:36;;;;;;;0.68;0.68;;;5.30;99.90;;;;;;5099219;27;20038;-84
2022/01/23 03:03:13;;;;;;;0.50;0.50;;;5.20;99.90;;;;;;5098815;27;20433;-84
2022/01/23 03:05:40;;;;;;;0.22;0.22;;;5.20;99.90;;;;;;5098487;27;20047;-84
2022/01/23 03:10:44;;;;;;;0.30;0.30;;;5.30;99.90;;;;;;5115733;27;20122;-84
2022/01/23 03:13:41;;;;;;;0.30;0.30;;;5.20;99.90;;;;;;5116451;27;20506;-84
2022/01/23 03:30:03;;;;;;;0.30;0.30;;;5.20;99.90;;;;;;5054081;28;20059;-84
2022/01/23 03:32:39;;;;;;;0.25;0.25;;;5.20;99.90;;;;;;5076549;28;20113;-84
2022/01/23 03:35:06;;;;;;;0.30;0.30;;;5.20;99.90;;;;;;5108731;27;20127;-84
2022/01/23 03:37:32;;;;;;;0.40;0.40;;;5.20;99.90;;;;;;5097966;27;20540;-84
2022/01/23 03:40:09;;;;;;;0.30;0.30;;;5.20;99.90;;;;;;5098198;27;20118;-84
2022/01/23 03:42:38;;;;;;;0.30;0.30;;;5.20;99.90;;;;;;5097745;27;20497;-84
2022/01/23 03:50:47;;;;;;;0.40;0.40;;;5.20;99.90;;;;;;5082022;28;20415;-84
2022/01/23 03:53:13;;;;;;;0.30;0.30;;;5.20;99.90;;;;;;5097444;27;20168;-84
2022/01/23 03:55:38;;;;;;;0.30;0.30;;;5.20;99.90;;;;;;5115633;27;20039;-84
2022/01/23 03:58:04;;;;;;;0.30;0.30;;;5.20;99.90;;;;;;5097921;27;20039;-84
2022/01/23 04:00:30;;;;;;;0.30;0.30;;;5.20;99.90;;;;;;5078832;28;20023;-84
2022/01/23 04:02:56;;;;;;;0.20;0.20;;;5.20;99.90;;;;;;5115197;27;20028;-84
2022/01/23 04:05:22;;;;;;;0.40;0.40;;;5.20;99.90;;;;;;5097970;27;20043;-84
2022/01/23 04:07:47;;;;;;;0.40;0.40;;;5.10;99.90;;;;;;5097790;27;20035;-84
2022/01/23 04:10:16;;;;;;;0.30;0.30;;;5.20;99.90;;;;;;5114077;27;20126;-83
2022/01/23 04:12:51;;;;;;;0.68;0.57;;;5.20;99.90;;;;;;5097736;27;20798;-84
2022/01/23 04:16:11;;;;;;;0.40;0.40;;;5.10;99.90;;;;;;5097617;27;20027;-84
2022/01/23 04:21:16;;;;;;;0.85;0.55;;;5.10;99.90;;;;;;5116322;27;20605;-84
2022/01/23 04:34:51;;;;;;;0.47;0.47;;;5.10;99.90;;;;;;5120920;27;20046;-84
2022/01/23 04:45:33;;;;;;;0.60;0.50;;;5.10;99.90;;;;;;5128712;27;20741;-84
2022/01/23 04:48:53;;;;;;;0.93;0.93;;;5.10;99.90;;;;;;5106830;27;20123;-84
2022/01/23 05:04:32;;;;;;;1.05;0.85;;;5.10;99.90;;;;;;5114209;27;20039;-84
2022/01/23 05:07:11;;;;;;;2.72;1.05;;;5.10;99.90;;;;;;5096871;28;20041;-84
2022/01/23 05:09:37;;;;;;;0.73;0.73;;;5.00;99.90;;;;;;5110390;28;20062;-84
2022/01/23 05:12:10;;;;;;;0.40;0.40;;;5.00;99.90;;;;;;5097343;28;20035;-84
2022/01/23 05:14:45;;;;;;;0.60;0.60;;;5.00;99.90;;;;;;5097221;28;20068;-84
2022/01/23 05:17:13;;;;;;;0.95;0.68;;;5.10;99.90;;;;;;5096888;28;20429;-84
2022/01/23 05:19:40;;;;;;;1.02;0.82;;;5.00;99.90;;;;;;5113935;28;20031;-84
2022/01/23 05:25:00;;;;;;;1.85;1.17;;;5.00;99.90;;;;;;5118196;27;20050;-84
2022/01/23 05:27:31;;;;;;;0.30;0.30;;;5.00;99.90;;;;;;5117829;27;20437;-84
2022/01/23 05:29:58;;;;;;;0.43;0.43;;;5.00;99.90;;;;;;5098158;27;20031;-84
2022/01/23 05:32:26;;;;;;;0.73;0.68;;;5.00;99.90;;;;;;5100067;27;20035;-84
2022/01/23 05:34:51;;;;;;;0.63;0.60;;;5.00;99.90;;;;;;5098227;27;20038;-84
2022/01/23 05:37:48;;;;;;;0.60;0.60;;;5.00;99.90;;;;;;5100273;27;20051;-84
2022/01/23 05:40:16;;;;;;;0.50;0.50;;;5.00;99.90;;;;;;5114985;27;20031;-84
2022/01/23 05:42:42;;;;;;;1.27;0.55;;;5.00;99.90;;;;;;5101473;27;20037;-84
2022/01/23 05:45:08;;;;;;;0.50;0.50;;;5.00;99.90;;;;;;5118350;27;20121;-84
2022/01/23 05:47:34;;;;;;;0.30;0.30;;;4.90;99.90;;;;;;5100436;27;20396;-84
2022/01/23 05:49:59;;;;;;;0.32;0.32;;;4.90;99.90;;;;;;5100217;27;20037;-84
2022/01/23 05:52:25;;;;;;;0.30;0.30;;;4.90;99.90;;;;;;5100533;27;20107;-84
2022/01/23 05:54:51;;;;;;;0.50;0.50;;;4.90;99.90;;;;;;5115709;27;20114;-85
2022/01/23 05:57:16;;;;;;;0.30;0.30;;;4.90;99.90;;;;;;5116906;27;20073;-84
2022/01/23 05:59:42;;;;;;;0.30;0.30;;;4.90;99.90;;;;;;5135151;27;20064;-84
2022/01/23 06:02:08;;;;;;;0.40;0.40;;;4.80;99.90;;;;;;5100045;27;20039;-84
2022/01/23 06:04:33;;;;;;;0.30;0.30;;;4.80;99.90;;;;;;5117067;27;20043;-84
2022/01/23 06:06:59;;;;;;;0.40;0.40;;;4.80;99.90;;;;;;5099360;27;20043;-84
2022/01/23 06:09:26;;;;;;;0.35;0.35;;;4.80;99.90;;;;;;5100073;27;20035;-84
2022/01/23 06:11:52;;;;;;;0.60;0.60;;;4.80;99.90;;;;;;5100395;27;20034;-85
2022/01/23 06:14:18;;;;;;;0.30;0.30;;;4.80;99.90;;;;;;5100070;27;20118;-84
2022/01/23 06:16:44;;;;;;;0.52;0.52;;;4.70;99.90;;;;;;5096275;28;20070;-84
2022/01/23 06:19:09;;;;;;;0.20;0.20;;;4.70;99.90;;;;;;5099572;27;20164;-85
2022/01/23 06:21:35;;;;;;;0.30;0.30;;;4.50;99.90;;;;;;5100405;27;20027;-84
2022/01/23 06:24:06;;;;;;;0.30;0.30;;;4.70;99.90;;;;;;5100586;27;20927;-84
2022/01/23 06:26:57;;;;;;;0.40;0.40;;;4.60;99.90;;;;;;5100202;27;20045;-84
2022/01/23 06:29:23;;;;;;;0.35;0.35;;;4.70;99.90;;;;;;5096732;27;20050;-84
2022/01/23 06:31:50;;;;;;;0.30;0.30;;;4.70;99.90;;;;;;5100034;27;20035;-84
2022/01/23 06:34:18;;;;;;;2.05;1.95;;;4.60;99.90;;;;;;5099191;27;20114;-84
2022/01/23 06:36:44;;;;;;;0.32;0.32;;;4.60;99.90;;;;;;5099043;27;20116;-84
2022/01/23 06:39:12;;;;;;;1.08;1.02;;;4.70;99.90;;;;;;5096837;27;20052;-84
2022/01/23 06:41:38;;;;;;;0.40;0.40;;;4.70;99.90;;;;;;5099473;27;20047;-84
2022/01/23 06:44:05;;;;;;;0.30;0.30;;;4.70;99.90;;;;;;5099411;27;20042;-84
2022/01/23 06:46:34;;;;;;;0.30;0.30;;;4.70;99.90;;;;;;5098618;27;20031;-84
2022/01/23 06:49:00;;;;;;;0.30;0.30;;;4.70;99.90;;;;;;5099689;27;20035;-84
2022/01/23 06:51:26;;;;;;;0.30;0.30;;;4.70;99.90;;;;;;5099493;27;20045;-84
2022/01/23 06:53:52;;;;;;;0.77;0.75;;;5.40;99.90;;;;;;5099520;27;20117;-84
2022/01/23 06:56:27;;;;;;;0.20;0.20;;;4.80;99.90;;;;;;5098827;27;20083;-84
2022/01/23 06:58:53;;;;;;;0.40;0.40;;;4.80;99.90;;;;;;5116746;27;20396;-84
2022/01/23 07:01:25;;;;;;;0.65;0.65;;;4.80;99.90;;;;;;5116683;27;20407;-84
2022/01/23 07:03:51;;;;;;;0.30;0.30;;;4.80;99.90;;;;;;5093087;27;20484;-84
2022/01/23 07:06:16;;;;;;;0.52;0.52;;;4.80;99.90;;;;;;5099047;27;20049;-85
2022/01/23 07:08:42;;;;;;;0.30;0.30;;;4.90;99.90;;;;;;5098968;27;20551;-84
2022/01/23 07:11:07;;;;;;;0.40;0.40;;;4.90;99.90;;;;;;5099379;27;20491;-84
2022/01/23 07:13:33;;;;;;;0.30;0.30;;;4.90;99.90;;;;;;5098702;27;20110;-84
2022/01/23 07:15:59;;;;;;;1.45;0.85;;;4.90;99.90;;;;;;5115848;27;20807;-84
2022/01/23 07:18:24;;;;;;;2.60;1.02;;;4.80;99.90;;;;;;5098287;27;20688;-84
2022/01/23 07:20:50;;;;;;;0.30;0.30;;;4.70;99.90;;;;;;5115369;27;20034;-84
2022/01/23 07:23:21;;;;;;;0.30;0.30;;;4.70;99.90;;;;;;5098145;27;20035;-84
2022/01/23 07:25:47;;;;;;;0.30;0.30;;;4.80;99.90;;;;;;5098130;27;20054;-84
2022/01/23 07:28:15;;;;;;;0.40;0.40;;;4.80;99.90;;;;;;5097583;27;20039;-84
2022/01/23 07:30:56;;;;;;;0.45;0.45;;;4.90;99.90;;;;;;5098044;27;20046;-84
2022/01/23 07:33:21;;;;;;;0.30;0.30;;;4.80;99.90;;;;;;5115686;27;20038;-85
2022/01/23 07:35:48;;;;;;;0.30;0.30;;;4.90;99.90;;;;;;5097904;27;20043;-84
2022/01/23 07:38:17;;;;;;;0.73;0.73;;;4.80;99.90;;;;;;5097919;27;20039;-84
2022/01/23 07:40:48;;;;;;;0.30;0.30;;;4.80;99.90;;;;;;5098251;27;20031;-84
2022/01/23 07:43:20;;;;;;;0.30;0.30;;;4.80;99.90;;;;;;5098667;27;20036;-84
2022/01/23 07:45:45;;;;;;;2.55;1.05;;;5.00;99.90;;;;;;5097949;27;20433;-84
2022/01/23 07:48:11;;;;;;;0.40;0.40;;;4.90;99.90;;;;;;5115452;27;20050;-84
2022/01/23 07:50:37;;;;;;;1.05;0.95;;;4.90;99.90;;;;;;5098843;27;20039;-84
2022/01/23 07:53:04;;;;;;;0.57;0.57;;;4.80;99.90;;;;;;5098312;27;20031;-84
2022/01/23 07:55:33;;;;;;;1.65;0.95;;;4.90;99.90;;;;;;5115684;27;20066;-84
2022/01/23 07:58:12;;;;;;;0.30;0.30;;;4.90;99.90;;;;;;5098088;27;20043;-84
2022/01/23 08:00:38;;;;;;;0.30;0.30;;;4.90;99.90;;;;;;5097884;27;20035;-84
2022/01/23 08:03:04;;;;;;;0.30;0.30;;;4.90;99.90;;;;;;5114580;27;20027;-84
2022/01/23 08:05:29;;;;;;;0.50;0.50;;;4.90;99.90;;;;;;5097544;27;20445;-84
2022/01/23 08:07:55;;;;;;;0.30;0.30;;;4.90;99.90;;;;;;5093373;27;20085;-84
2022/01/23 08:10:21;;;;;;;1.92;0.93;;;5.00;99.90;;;;;;5097687;27;20038;-84
2022/01/23 08:12:46;;;;;;;0.30;0.30;;;5.00;99.90;;;;;;5098066;27;20077;-84
2022/01/23 08:15:13;;;;;;;0.30;0.30;;;5.00;99.90;;;;;;5098282;27;20036;-84
2022/01/23 08:17:38;;;;;;;0.20;0.20;;;4.90;99.90;;;;;;5114493;27;20054;-84
2022/01/23 08:20:05;;;;;;;1.00;0.73;;;5.00;99.90;;;;;;5114573;27;20039;-84
2022/01/23 08:22:31;;;;;;;0.75;0.75;;;5.10;99.90;;;;;;5097208;27;20400;-84
2022/01/23 08:24:57;;;;;;;0.20;0.20;;;5.10;99.90;;;;;;5097604;27;20042;-84
2022/01/23 08:27:25;;;;;;;2.38;2.17;;;5.10;99.90;;;;;;5097006;27;20043;-84
2022/01/23 08:29:50;;;;;;;0.65;0.65;;;5.10;99.90;;;;;;5097373;27;20510;-84
2022/01/23 08:32:16;;;;;;;0.30;0.30;;;5.10;99.90;;;;;;5089742;27;20038;-84
2022/01/23 08:34:42;;;;;;;0.40;0.40;;;5.40;99.90;;;;;;5097445;27;20031;-84
2022/01/23 08:37:08;;;;;;;0.80;0.75;;;5.20;99.90;;;;;;5097176;27;20073;-84
2022/01/23 08:39:36;;;;;;;0.30;0.30;;;5.40;99.90;;;;;;5097858;27;20042;-83
2022/01/23 08:42:11;;;;;;;0.30;0.30;;;5.20;99.90;;;;;;5114681;27;20038;-84
2022/01/23 08:44:38;;;;;;;0.35;0.35;;;5.20;99.90;;;;;;5101708;27;20035;-84
2022/01/23 08:47:09;;;;;;;0.30;0.30;;;5.20;99.90;;;;;;5097412;27;20404;-84
2022/01/23 08:49:39;;;;;;;0.40;0.40;;;5.20;99.90;;;;;;5097978;27;20035;-84
2022/01/23 08:52:05;;;;;;;0.32;0.32;;;5.20;99.90;;;;;;5094253;28;20074;-85
2022/01/23 08:54:31;;;;;;;0.40;0.40;;;5.30;99.90;;;;;;5094051;28;20063;-84
2022/01/23 08:56:57;;;;;;;0.30;0.30;;;5.30;99.90;;;;;;5093727;28;20447;-84
2022/01/23 08:59:24;;;;;;;0.30;0.30;;;5.30;99.90;;;;;;5093769;28;20071;-85
2022/01/23 09:01:50;;;;;;;0.30;0.30;;;5.40;99.90;;;;;;5094968;28;20031;-84
2022/01/23 09:04:16;;;;;;;0.40;0.40;;;5.40;99.90;;;;;;5107148;27;20092;-84
2022/01/23 09:06:43;;;;;;;0.50;0.50;;;5.40;99.90;;;;;;5114743;28;20379;-84
2022/01/23 09:09:16;;;;;;;0.40;0.40;;;5.40;99.90;;;;;;5132044;27;20043;-84
2022/01/23 09:12:00;;;;;;;0.40;0.40;;;5.50;99.90;;;;;;5114102;28;20041;-86
2022/01/23 09:14:26;;;;;;;0.30;0.30;;;5.50;99.90;;;;;;5094098;28;20039;-85
2022/01/23 09:16:54;;;;;;;0.30;0.30;;;5.70;99.90;;;;;;5106423;28;20064;-84
2022/01/23 09:19:21;;;;;;;0.30;0.30;;;5.60;99.90;;;;;;5092292;28;20119;-85
2022/01/23 09:21:49;;;;;;;0.32;0.32;;;5.60;99.90;;;;;;5119753;28;20453;-84
2022/01/23 09:24:16;;;;;;;0.40;0.40;;;5.60;99.90;;;;;;5097822;28;20548;-84
2022/01/23 09:26:42;;;;;;;0.50;0.50;;;5.70;99.90;;;;;;5097213;28;20130;-84
2022/01/23 09:29:15;;;;;;;0.40;0.40;;;5.70;99.90;;;;;;5106054;27;20121;-85
2022/01/23 09:31:48;;;;;;;0.30;0.30;;;5.80;99.90;;;;;;5097218;28;20827;-84
2022/01/23 09:34:26;;;;;;;1.05;0.95;;;5.80;99.90;;;;;;5097931;28;20034;-84
2022/01/23 09:36:54;;;;;;;1.15;1.10;;;5.70;99.90;;;;;;5097123;28;20062;-84
2022/01/23 09:39:20;;;;;;;0.30;0.30;;;5.80;99.90;;;;;;5098727;27;20027;-84
2022/01/23 09:42:10;;;;;;;0.40;0.40;;;5.80;99.90;;;;;;5099770;28;20110;-84
2022/01/23 09:44:44;;;;;;;0.57;0.57;;;5.80;99.90;;;;;;5081111;28;20043;-84
2022/01/23 09:47:12;;;;;;;1.98;1.05;;;5.80;99.90;;;;;;5113997;28;20035;-84
2022/01/23 09:49:43;;;;;;;0.30;0.30;;;5.90;99.90;;;;;;5097422;28;20142;-84
2022/01/23 09:52:12;;;;;;;1.00;0.57;;;5.90;99.90;;;;;;5097518;28;20043;-84
2022/01/23 09:54:40;;;;;;;1.05;0.95;;;6.00;99.90;;;;;;5097099;28;20084;-84
2022/01/23 09:57:08;;;;;;;1.55;0.95;;;6.00;99.90;;;;;;5096768;28;20031;-84
2022/01/23 09:59:35;;;;;;;0.45;0.45;;;6.00;99.90;;;;;;5130545;27;20126;-84
2022/01/23 10:02:09;;;;;;;0.30;0.30;;;6.00;99.90;;;;;;5114202;27;20403;-84
2022/01/23 10:04:35;;;;;;;0.60;0.60;;;6.10;99.90;;;;;;5109209;27;20039;-84
2022/01/23 10:07:05;;;;;;;1.08;0.82;;;6.20;99.90;;;;;;5115335;27;20046;-84
2022/01/23 10:09:40;;;;;;;0.40;0.40;;;6.20;99.90;;;;;;5100160;27;20039;-84
2022/01/23 10:12:07;;;;;;;0.30;0.30;;;6.30;99.90;;;;;;5101000;27;20404;-84
2022/01/23 10:14:36;;;;;;;0.95;0.93;;;6.30;99.90;;;;;;5100622;27;20031;-84
2022/01/23 10:17:19;;;;;;;0.75;0.60;;;6.60;99.90;;;;;;5100785;27;20520;-84
2022/01/23 10:19:45;;;;;;;0.22;0.22;;;6.40;99.90;;;;;;5097988;27;20039;-85
2022/01/23 10:22:12;;;;;;;0.30;0.30;;;6.50;99.90;;;;;;5097319;28;20054;-84
2022/01/23 10:24:38;;;;;;;0.40;0.40;;;6.50;99.90;;;;;;5080392;28;20045;-84
2022/01/23 10:27:04;;;;;;;1.13;0.73;;;6.50;99.90;;;;;;5096287;27;20031;-85
2022/01/23 10:29:34;;;;;;;0.50;0.50;;;6.50;99.90;;;;;;5121031;27;20391;-84
2022/01/23 10:32:18;;;;;;;1.15;0.60;;;6.60;99.90;;;;;;5138054;27;20097;-84
2022/01/23 10:34:56;;;;;;;1.23;0.87;;;6.60;99.90;;;;;;5138423;27;20030;-84
2022/01/23 10:37:32;;;;;;;0.30;0.30;;;6.60;99.90;;;;;;5120299;27;20050;-85
2022/01/23 10:40:09;;;;;;;0.85;0.73;;;6.70;99.90;;;;;;5097176;28;20510;-84
2022/01/23 10:47:59;;;;;;;0.80;0.80;;;6.70;99.90;;;;;;5096535;28;20047;-84
2022/01/23 10:50:25;;;;;;;0.55;0.40;;;6.80;99.90;;;;;;5114327;27;20047;-86
2022/01/23 10:52:53;;;;;;;0.40;0.40;;;6.90;99.90;;;;;;5118629;27;20039;-84
2022/01/23 10:55:32;;;;;;;0.20;0.20;;;6.80;99.90;;;;;;5100104;27;20118;-84
2022/01/23 10:58:01;;;;;;;0.88;0.88;;;6.90;99.90;;;;;;5099333;27;20461;-84
2022/01/23 11:00:32;;;;;;;0.45;0.45;;;6.90;99.90;;;;;;5100169;27;20035;-84
2022/01/23 11:03:18;;;;;;;0.30;0.30;;;6.90;99.90;;;;;;5100337;27;20057;-84
2022/01/23 11:05:45;;;;;;;0.45;0.45;;;7.00;99.90;;;;;;5100942;27;20031;-84
2022/01/23 11:09:00;;;;;;;0.30;0.30;;;7.00;99.90;;;;;;5099094;27;20035;-84
2022/01/23 11:11:40;;;;;;;1.00;0.82;;;7.10;99.90;;;;;;5100111;27;20039;-84
2022/01/23 11:19:46;;;;;;;0.95;0.55;;;7.10;99.90;;;;;;5100421;27;20039;-84
2022/01/23 11:22:47;;;;;;;1.00;0.70;;;7.20;99.90;;;;;;5099743;27;20028;-84
2022/01/23 11:25:14;;;;;;;0.30;0.30;;;7.20;99.90;;;;;;5099710;27;20384;-84
2022/01/23 11:27:40;;;;;;;0.30;0.30;;;7.10;99.90;;;;;;5116471;27;20082;-85
2022/01/23 11:30:05;;;;;;;1.38;0.73;;;7.10;99.90;;;;;;5099737;27;20066;-85
2022/01/23 11:32:45;;;;;;;0.40;0.40;;;7.10;99.90;;;;;;5099685;27;20149;-84
2022/01/23 11:35:15;;;;;;;1.00;0.70;;;7.10;99.90;;;;;;5103131;27;20031;-84
2022/01/23 11:37:51;;;;;;;0.50;0.40;;;7.10;99.90;;;;;;5111407;27;20031;-84
2022/01/23 11:40:34;;;;;;;1.73;0.63;;;7.10;99.90;;;;;;5101662;27;20031;-84
2022/01/23 11:55:03;;;;;;;0.20;0.20;;;7.20;99.90;;;;;;5116112;27;19940;-84
2022/01/23 11:57:38;;;;;;;0.38;0.38;;;7.20;99.90;;;;;;5098635;27;20046;-84
2022/01/23 12:00:11;;;;;;;;;;;7.20;99.90;;;;;;5100043;27;20071;-84
2022/01/23 12:03:07;;;;;;;0.45;0.40;;;7.20;99.90;;;;;;5096148;27;19919;-85
2022/01/23 12:05:33;;;;;;;0.32;0.32;;;7.20;99.90;;;;;;5097700;27;20454;-85
2022/01/23 12:08:21;;;;;;;0.30;0.30;;;7.10;99.90;;;;;;5085694;27;20034;-84
2022/01/23 12:16:33;;;;;;;0.15;0.15;;;7.10;99.90;;;;;;5114875;27;20047;-84
2022/01/23 12:19:21;;;;;;;0.17;0.17;;;7.10;99.90;;;;;;5115959;27;20392;-84
2022/01/23 12:25:22;;;;;;;0.20;0.20;;;7.10;99.90;;;;;;5134122;27;20473;-84
2022/01/23 12:28:31;;;;;;;0.20;0.20;;;7.10;99.90;;;;;;5104939;27;20035;-84
2022/01/23 12:31:19;;;;;;;0.32;0.32;;;7.10;99.90;;;;;;5097921;27;20453;-84
2022/01/23 12:33:50;;;;;;;0.28;0.28;;;7.10;99.90;;;;;;5111955;27;20445;-84
2022/01/23 12:36:40;;;;;;;0.20;0.20;;;7.10;99.90;;;;;;5114795;27;20110;-84
2022/01/23 12:39:09;;;;;;;0.20;0.20;;;7.10;99.90;;;;;;5115222;27;20040;-85
2022/01/23 12:42:02;;;;;;;0.20;0.20;;;7.10;99.90;;;;;;5115257;27;20056;-84
2022/01/23 12:44:28;;;;;;;0.30;0.30;;;7.10;99.90;;;;;;5098380;27;20043;-84
2022/01/23 12:47:02;;;;;;;0.40;0.40;;;7.10;99.90;;;;;;5101683;27;20110;-84
2022/01/23 12:50:00;;;;;;;0.25;0.25;;;7.10;99.90;;;;;;5109507;27;20040;-84
2022/01/23 12:52:26;;;;;;;0.52;0.52;;;7.10;99.90;;;;;;5118765;27;20079;-84
2022/01/23 12:54:57;;;;;;;0.95;0.60;;;7.00;99.90;;;;;;5118638;27;20121;-85
2022/01/23 12:57:35;;;;;;;0.20;0.20;;;7.00;99.90;;;;;;5118291;27;20073;-84
2022/01/23 13:00:08;;;;;;;0.38;0.38;;;7.00;99.90;;;;;;5135342;27;20137;-85
2022/01/23 13:02:44;;;;;;;0.63;0.40;;;7.00;99.90;;;;;;5118372;27;20026;-84
2022/01/23 13:05:10;;;;;;;;;;;7.00;99.90;;;;;;5118659;27;20035;-85
2022/01/23 13:07:47;;;;;;;1.83;0.55;;;7.00;99.90;;;;;;5117935;27;19915;-84
2022/01/23 13:15:59;;;;;;;0.38;0.30;;;7.00;99.90;;;;;;5131903;27;20046;-84
2022/01/23 13:29:53;;;;;;;0.50;0.50;;;7.00;99.90;;;;;;5111389;28;20142;-84
2022/01/23 13:35:06;;;;;;;0.30;0.30;;;7.00;99.90;;;;;;5118630;27;20046;-84
2022/01/23 13:37:36;;;;;;;0.30;0.30;;;7.00;99.90;;;;;;5108611;28;20042;-83
2022/01/23 13:40:07;;;;;;;0.30;0.30;;;7.00;99.90;;;;;;5097621;28;20114;-84
2022/01/23 13:51:36;;;;;;;0.30;0.30;;;7.00;99.90;;;;;;5118653;27;20112;-84
2022/01/23 14:02:15;;;;;;;0.30;0.30;;;7.00;99.90;;;;;;5118520;27;20547;-83
2022/01/23 14:04:43;;;;;;;0.30;0.30;;;7.00;99.90;;;;;;5117791;27;20049;-84
2022/01/23 14:07:09;;;;;;;0.30;0.30;;;7.00;99.90;;;;;;5117771;27;20043;-85
2022/01/23 14:09:44;;;;;;;0.20;0.20;;;7.00;99.90;;;;;;5101410;27;20512;-84
2022/01/23 14:12:12;;;;;;;0.20;0.20;;;7.00;99.90;;;;;;5101345;27;20035;-85
2022/01/23 14:15:05;;;;;;;0.30;0.30;;;7.00;99.90;;;;;;5100980;27;20049;-84
2022/01/23 14:17:36;;;;;;;0.30;0.30;;;7.00;99.90;;;;;;5100744;27;20035;-84
2022/01/23 14:20:09;;;;;;;0.35;0.35;;;6.90;99.90;;;;;;5110948;27;20495;-84
2022/01/23 14:22:39;;;;;;;0.40;0.40;;;7.00;99.90;;;;;;5111282;27;20023;-84
2022/01/23 14:25:20;;;;;;;0.40;0.35;;;7.00;99.90;;;;;;5101103;27;20056;-85
2022/01/23 14:28:04;;;;;;;0.30;0.30;;;6.90;99.90;;;;;;5100630;27;20138;-84
2022/01/23 14:30:51;;;;;;;0.30;0.30;;;6.90;99.90;;;;;;5117868;27;20046;-84
2022/01/23 14:33:27;;;;;;;0.30;0.30;;;6.90;99.90;;;;;;5100990;27;20046;-84
2022/01/23 14:35:54;;;;;;;0.30;0.30;;;6.90;99.90;;;;;;5100891;27;20062;-84
2022/01/23 14:38:25;;;;;;;0.30;0.30;;;6.90;99.90;;;;;;5117048;27;20046;-84
2022/01/23 14:41:00;;;;;;;0.30;0.30;;;6.80;99.90;;;;;;5100446;27;20086;-84
2022/01/23 14:43:40;;;;;;;0.20;0.20;;;6.80;99.90;;;;;;5101293;27;20122;-84
2022/01/23 14:46:11;;;;;;;0.30;0.30;;;6.80;99.90;;;;;;5133495;27;20125;-85
2022/01/23 14:48:57;;;;;;;0.30;0.30;;;6.80;99.90;;;;;;5121401;27;20039;-84
2022/01/23 14:51:37;;;;;;;0.20;0.20;;;6.90;99.90;;;;;;5121040;27;20448;-84
2022/01/23 14:54:03;;;;;;;0.30;0.30;;;6.80;99.90;;;;;;5111204;27;20075;-84
2022/01/23 14:56:31;;;;;;;0.40;0.40;;;6.70;99.90;;;;;;5099684;27;20035;-84
2022/01/23 14:58:57;;;;;;;0.73;0.43;;;6.70;99.90;;;;;;5106691;27;20824;-84
2022/01/23 15:01:24;;;;;;;0.30;0.30;;;6.70;99.90;;;;;;5120105;27;20042;-84
2022/01/23 15:03:56;;;;;;;0.30;0.30;;;6.70;99.90;;;;;;5102844;27;20555;-84
2022/01/23 15:06:22;;;;;;;0.30;0.30;;;6.70;99.90;;;;;;5102209;27;20040;-85
2022/01/23 15:09:09;;;;;;;0.30;0.30;;;6.70;99.90;;;;;;5124204;27;20039;-85
2022/01/23 15:11:35;;;;;;;0.20;0.20;;;6.60;99.90;;;;;;5097038;28;20039;-84
2022/01/23 15:14:03;;;;;;;0.30;0.30;;;6.60;99.90;;;;;;5079972;28;20042;-84
2022/01/23 15:16:29;;;;;;;0.30;0.30;;;6.60;99.90;;;;;;5079361;28;20036;-85
2022/01/23 15:18:54;;;;;;;0.30;0.30;;;6.70;99.90;;;;;;5079555;28;20527;-85
2022/01/23 15:21:20;;;;;;;0.20;0.20;;;6.60;99.90;;;;;;5096579;28;20058;-84
2022/01/23 15:23:45;;;;;;;0.30;0.30;;;6.60;99.90;;;;;;5079516;28;20036;-85
2022/01/23 15:26:11;;;;;;;0.20;0.20;;;6.60;99.90;;;;;;5115914;27;20400;-84
2022/01/23 15:28:39;;;;;;;0.30;0.30;;;6.80;99.90;;;;;;5099870;27;20073;-84
2022/01/23 15:31:04;;;;;;;0.30;0.30;;;6.60;99.90;;;;;;5110233;27;20043;-85
2022/01/23 15:33:30;;;;;;;0.30;0.30;;;6.70;99.90;;;;;;5127129;27;20084;-84
2022/01/23 15:35:55;;;;;;;0.30;0.30;;;6.50;99.90;;;;;;5100935;27;20050;-84
2022/01/23 15:38:21;;;;;;;0.40;0.40;;;6.50;99.90;;;;;;5110667;27;20457;-84
2022/01/23 15:40:50;;;;;;;0.80;0.80;;;6.50;99.90;;;;;;5099724;27;20054;-85
2022/01/23 15:43:15;;;;;;;0.40;0.40;;;6.50;99.90;;;;;;5099659;27;20032;-84
2022/01/23 15:45:43;;;;;;;0.68;0.40;;;6.50;99.90;;;;;;5116521;27;20035;-84
2022/01/23 15:48:09;;;;;;;0.30;0.30;;;6.50;99.90;;;;;;5098902;27;20043;-86
2022/01/23 15:50:43;;;;;;;0.30;0.30;;;6.50;99.90;;;;;;5099549;27;20038;-84
2022/01/23 15:53:08;;;;;;;0.20;0.20;;;6.40;99.90;;;;;;5099299;27;20449;-84
2022/01/23 15:55:34;;;;;;;0.30;0.30;;;6.40;99.90;;;;;;5107614;27;20043;-84
2022/01/23 15:58:42;;;;;;;0.20;0.20;;;6.40;99.90;;;;;;5102732;27;20042;-85
2022/01/23 16:01:17;;;;;;;0.30;0.30;;;6.40;99.90;;;;;;5079090;28;20043;-84
2022/01/23 16:03:42;;;;;;;1.15;1.05;;;6.40;99.90;;;;;;5095345;27;20500;-85
2022/01/23 16:06:08;;;;;;;0.30;0.30;;;6.40;99.90;;;;;;5097929;27;20126;-84
2022/01/23 16:08:35;;;;;;;1.08;0.20;;;6.30;99.90;;;;;;5115956;27;20046;-84
2022/01/23 16:11:02;;;;;;;0.50;0.50;;;6.30;99.90;;;;;;5098895;27;20035;-84
2022/01/23 16:13:33;;;;;;;0.32;0.32;;;6.30;99.90;;;;;;5115925;27;20489;-84
2022/01/23 16:15:59;;;;;;;0.20;0.20;;;6.30;99.90;;;;;;5113236;27;20038;-84
2022/01/23 16:18:26;;;;;;;0.35;0.35;;;6.30;99.90;;;;;;5117025;27;20432;-84
2022/01/23 16:20:52;;;;;;;1.02;0.93;;;6.50;99.90;;;;;;5123800;27;20039;-83
2022/01/23 16:23:19;;;;;;;0.20;0.20;;;6.30;99.90;;;;;;5106684;27;20037;-86
2022/01/23 16:25:44;;;;;;;0.40;0.40;;;6.50;99.90;;;;;;5118834;27;20122;-86
2022/01/23 16:28:10;;;;;;;0.57;0.45;;;6.30;99.90;;;;;;5118666;27;20470;-85
2022/01/23 16:30:46;;;;;;;0.30;0.30;;;6.20;99.90;;;;;;5119045;27;20042;-85
2022/01/23 16:33:12;;;;;;;0.50;0.50;;;6.20;99.90;;;;;;5118787;27;20070;-85
2022/01/23 16:35:38;;;;;;;0.77;0.77;;;6.50;99.90;;;;;;5135775;27;20466;-84
2022/01/23 16:38:03;;;;;;;0.40;0.40;;;6.20;99.90;;;;;;5118187;27;20083;-85
2022/01/23 16:40:29;;;;;;;0.20;0.20;;;6.30;99.90;;;;;;5118502;27;20038;-85
2022/01/23 16:42:54;;;;;;;0.20;0.20;;;6.20;99.90;;;;;;5103668;27;20038;-85